Time;durP1;ratioP1;P1;durP2;ratioP2;P2;SDS_P1;SDS_P2;PMS_P1;PMS_P2;Temp;Humidity;BMP_temperature;BMP_pressure;BME280_temperature;BME280_humidity;BME280_pressure;Samples;Min_cycle;Max_cycle;Signal;HPM_P1;HPM_P2
2023/01/01 00:00:33;;;;;;;50.13;42.45;;;;;;;13.74;65.32;100191.59;10424001;28;20530;-54
2023/01/01 00:05:37;;;;;;;84.82;71.60;;;;;;;13.71;65.82;100175.84;10402795;28;20056;-54
2023/01/01 00:10:38;;;;;;;42.78;38.35;;;;;;;13.60;66.28;100163.47;10416034;28;20053;-54
2023/01/01 00:15:40;;;;;;;50.83;45.28;;;;;;;13.63;66.41;100168.53;10404283;28;20557;-53
2023/01/01 00:20:41;;;;;;;43.45;38.33;;;;;;;13.61;66.37;100168.66;10405443;28;20049;-54
2023/01/01 00:25:43;;;;;;;49.47;42.90;;;;;;;13.54;66.85;100170.25;10407214;28;20065;-54
2023/01/01 00:30:45;;;;;;;46.30;40.47;;;;;;;13.52;66.96;100163.34;10434062;28;20139;-54
2023/01/01 00:35:46;;;;;;;44.75;39.92;;;;;;;13.42;67.28;100150.84;10425693;28;20052;-54
2023/01/01 00:40:48;;;;;;;45.25;39.92;;;;;;;13.44;67.44;100153.38;10422162;28;20055;-54
2023/01/01 00:45:52;;;;;;;37.78;33.85;;;;;;;13.37;67.82;100153.09;10408305;28;20072;-54
2023/01/01 00:50:53;;;;;;;35.30;29.73;;;;;;;13.30;68.06;100157.34;10403843;28;20429;-54
2023/01/01 00:55:55;;;;;;;39.65;32.90;;;;;;;13.28;68.50;100161.97;10403422;28;20490;-54
2023/01/01 01:00:58;;;;;;;31.77;26.58;;;;;;;13.21;68.69;100158.16;10400040;28;20730;-55
2023/01/01 01:06:09;;;;;;;29.17;26.08;;;;;;;13.20;69.29;100161.84;10410134;28;20080;-53
2023/01/01 01:11:15;;;;;;;38.08;32.75;;;;;;;13.15;69.38;100161.41;10404991;28;20041;-53
2023/01/01 01:16:20;;;;;;;77.43;62.17;;;;;;;13.14;69.73;100162.41;10402299;28;20980;-54
2023/01/01 01:21:23;;;;;;;46.83;40.47;;;;;;;13.17;69.80;100154.13;10423378;28;20078;-54
2023/01/01 01:26:27;;;;;;;82.10;67.55;;;;;;;13.09;69.85;100160.19;10405962;28;20147;-54
2023/01/01 01:31:30;;;;;;;;;;;;;;;13.09;69.60;100176.22;10424053;28;20144;-55
2023/01/01 01:36:32;;;;;;;25.02;21.45;;;;;;;13.11;69.48;100168.06;10410641;28;20022;-55
2023/01/01 01:41:33;;;;;;;28.98;25.75;;;;;;;13.04;69.40;100167.75;10401549;28;20120;-60
2023/01/01 01:46:41;;;;;;;35.30;30.60;;;;;;;12.98;69.52;100171.84;10405091;28;20056;-53
2023/01/01 01:51:44;;;;;;;42.08;36.17;;;;;;;13.01;69.96;100163.53;10401342;28;20049;-54
2023/01/01 01:56:56;;;;;;;40.00;33.88;;;;;;;12.98;69.93;100158.47;10401831;28;20052;-54
2023/01/01 02:01:58;;;;;;;53.08;41.78;;;;;;;13.02;70.24;100175.91;10399812;28;20055;-53
2023/01/01 02:07:00;;;;;;;37.95;33.92;;;;;;;12.98;70.66;100174.50;10391411;28;20061;-55
2023/01/01 02:12:01;;;;;;;47.03;38.10;;;;;;;12.99;70.65;100186.06;10395369;28;20049;-57
2023/01/01 02:17:08;;;;;;;40.15;35.88;;;;;;;12.91;71.22;100189.44;10396208;28;20056;-53
2023/01/01 02:22:45;;;;;;;41.75;36.72;;;;;;;12.80;71.83;100193.06;10394770;28;20135;-54
2023/01/01 02:28:08;;;;;;;44.13;39.30;;;;;;;12.71;72.61;100200.06;10384952;28;20443;-54
2023/01/01 02:33:18;;;;;;;45.08;40.28;;;;;;;12.62;72.85;100189.41;10396796;28;20670;-55
2023/01/01 02:38:33;;;;;;;49.83;42.35;;;;;;;12.61;72.99;100198.38;10394142;28;20050;-54
2023/01/01 02:43:34;;;;;;;44.78;40.05;;;;;;;12.52;73.19;100198.22;10384688;28;20049;-54
2023/01/01 02:48:46;;;;;;;42.58;37.95;;;;;;;12.60;73.41;100226.09;10380482;28;20048;-54
2023/01/01 02:54:09;;;;;;;41.25;36.80;;;;;;;12.55;73.73;100238.00;10396557;28;20472;-54
2023/01/01 03:05:28;;;;;;;37.65;33.65;;;;;;;12.53;73.98;100239.94;10394317;28;20055;-54
2023/01/01 03:11:13;;;;;;;36.08;32.15;;;;;;;12.54;74.25;100233.63;10404191;28;20046;-54
2023/01/01 03:16:37;;;;;;;38.20;32.65;;;;;;;12.51;74.19;100222.41;10401999;28;20127;-53
2023/01/01 03:21:56;;;;;;;37.85;32.95;;;;;;;12.45;74.28;100217.63;10399228;28;20531;-53
2023/01/01 03:27:03;;;;;;;39.90;34.63;;;;;;;12.42;74.61;100228.56;10401698;28;20521;-53
2023/01/01 03:32:07;;;;;;;37.47;31.05;;;;;;;12.32;75.27;100221.34;10392946;28;20149;-53
2023/01/01 03:37:14;;;;;;;35.20;30.83;;;;;;;12.31;75.36;100221.47;10402093;28;20061;-53
2023/01/01 03:42:34;;;;;;;31.08;27.67;;;;;;;12.32;75.64;100225.84;10405105;28;20044;-53
2023/01/01 03:47:36;;;;;;;30.20;25.58;;;;;;;12.35;75.41;100230.91;10405906;28;20121;-54
2023/01/01 03:53:18;;;;;;;26.42;23.08;;;;;;;12.36;75.72;100241.47;10407021;28;20727;-53
2023/01/01 03:58:38;;;;;;;24.80;22.15;;;;;;;12.38;75.57;100236.84;10412877;28;20055;-53
2023/01/01 04:03:41;;;;;;;24.92;22.00;;;;;;;12.35;75.64;100242.44;10406328;28;20069;-53
2023/01/01 04:08:45;;;;;;;23.35;19.73;;;;;;;12.38;75.62;100231.50;10407735;28;20481;-57
2023/01/01 04:13:46;;;;;;;22.50;19.80;;;;;;;12.41;75.66;100240.22;10403589;28;20057;-53
2023/01/01 04:18:48;;;;;;;20.80;18.40;;;;;;;12.34;75.87;100227.41;10408135;28;20052;-54
2023/01/01 04:23:51;;;;;;;20.63;16.55;;;;;;;12.35;75.53;100218.41;10411579;28;20652;-54
2023/01/01 04:28:52;;;;;;;19.23;16.73;;;;;;;12.34;75.65;100222.06;10412245;28;20501;-53
2023/01/01 04:33:53;;;;;;;17.55;15.60;;;;;;;12.36;75.68;100233.44;10411376;28;20053;-54
2023/01/01 04:38:55;;;;;;;17.25;15.20;;;;;;;12.38;75.64;100236.84;10406726;28;20049;-53
2023/01/01 04:43:56;;;;;;;18.27;15.02;;;;;;;12.37;75.68;100219.13;10402090;28;20048;-53
2023/01/01 04:48:58;;;;;;;17.10;15.35;;;;;;;12.34;75.62;100222.06;10407037;28;20059;-53
2023/01/01 04:54:01;;;;;;;16.92;13.10;;;;;;;12.39;75.61;100232.34;10397254;28;20048;-53
2023/01/01 04:59:02;;;;;;;14.13;12.63;;;;;;;12.34;75.66;100238.09;10415382;28;20059;-53
2023/01/01 05:04:04;;;;;;;15.82;13.63;;;;;;;12.31;75.89;100235.69;10401209;28;20048;-58
2023/01/01 05:09:05;;;;;;;14.13;12.68;;;;;;;12.30;75.77;100255.34;10396284;28;20132;-54
2023/01/01 05:14:10;;;;;;;16.35;14.48;;;;;;;12.31;75.82;100246.38;10401796;28;20049;-53
2023/01/01 05:19:11;;;;;;;15.02;13.30;;;;;;;12.27;75.92;100266.28;10397915;28;20049;-54
2023/01/01 05:24:12;;;;;;;15.52;12.77;;;;;;;12.23;76.07;100272.03;10398557;28;20049;-53
2023/01/01 05:29:14;;;;;;;14.02;12.30;;;;;;;12.18;75.87;100277.78;10402887;28;20052;-52
2023/01/01 05:34:18;;;;;;;15.37;12.50;;;;;;;12.23;75.98;100291.56;10401598;28;20913;-54
2023/01/01 05:39:19;;;;;;;12.98;11.63;;;;;;;12.20;76.34;100292.69;10407122;28;20040;-53
2023/01/01 05:44:21;;;;;;;11.80;10.65;;;;;;;12.25;76.03;100281.59;10417223;28;20060;-55
2023/01/01 05:49:22;;;;;;;13.18;11.50;;;;;;;12.18;76.23;100286.63;10414532;28;20139;-53
2023/01/01 05:54:24;;;;;;;14.23;11.15;;;;;;;12.20;76.26;100292.69;10400941;28;20045;-53
2023/01/01 05:59:25;;;;;;;11.32;10.00;;;;;;;12.16;76.37;100287.72;10404492;28;20457;-53
2023/01/01 06:04:26;;;;;;;11.43;10.20;;;;;;;12.13;76.42;100290.66;10406001;28;20147;-53
2023/01/01 06:09:28;;;;;;;14.35;11.07;;;;;;;12.14;76.40;100295.03;10399242;28;20053;-52
2023/01/01 06:14:29;;;;;;;14.13;11.18;;;;;;;12.13;76.07;100290.66;10409647;28;20136;-54
2023/01/01 06:19:31;;;;;;;10.02;8.70;;;;;;;12.08;75.99;100301.72;10399760;28;20064;-54
2023/01/01 06:24:33;;;;;;;12.70;10.35;;;;;;;12.12;75.86;100305.81;10392184;28;20056;-53
2023/01/01 06:29:39;;;;;;;10.02;8.50;;;;;;;12.14;75.72;100308.38;10398107;28;20052;-54
2023/01/01 06:34:41;;;;;;;11.15;8.23;;;;;;;12.14;75.82;100311.03;10401979;28;20204;-53
2023/01/01 06:39:42;;;;;;;9.80;7.45;;;;;;;12.14;75.62;100319.88;10407594;28;20044;-52
2023/01/01 06:44:44;;;;;;;9.10;7.95;;;;;;;12.15;75.44;100320.75;10405277;28;20052;-53
2023/01/01 06:49:45;;;;;;;10.40;7.70;;;;;;;12.17;75.12;100326.78;10404495;28;20059;-53
2023/01/01 06:54:47;;;;;;;8.27;6.85;;;;;;;12.15;74.95;100326.91;10403765;28;20041;-53
2023/01/01 06:59:49;;;;;;;7.47;6.60;;;;;;;12.18;75.04;100336.47;10400651;28;20053;-54
2023/01/01 07:04:51;;;;;;;9.85;7.10;;;;;;;12.14;74.74;100340.38;10402104;28;20049;-54
2023/01/01 07:09:52;;;;;;;7.72;6.78;;;;;;;12.10;74.96;100344.28;10404354;28;20187;-54
2023/01/01 07:14:54;;;;;;;8.07;6.93;;;;;;;12.09;74.76;100348.78;10404554;28;21257;-53
2023/01/01 07:19:58;;;;;;;7.25;6.50;;;;;;;12.02;74.65;100352.94;10400660;28;20056;-53
2023/01/01 07:24:59;;;;;;;10.35;7.72;;;;;;;12.03;74.54;100349.31;10403218;28;20068;-53
2023/01/01 07:30:01;;;;;;;8.73;6.88;;;;;;;12.06;74.40;100359.72;10401092;28;20060;-54
2023/01/01 07:35:02;;;;;;;8.40;6.30;;;;;;;11.96;74.52;100354.31;10404741;28;20064;-55
2023/01/01 07:40:05;;;;;;;7.70;5.57;;;;;;;12.07;74.33;100382.75;10422094;28;21110;-54
2023/01/01 07:45:06;;;;;;;9.43;5.18;;;;;;;11.96;73.99;100383.66;10422618;28;20412;-54
2023/01/01 07:50:17;;;;;;;8.20;5.30;;;;;;;12.17;73.52;100407.69;10417039;28;20063;-53
2023/01/01 07:55:20;;;;;;;7.03;4.45;;;;;;;12.24;73.18;100401.84;10399753;28;20524;-53
2023/01/01 08:00:21;;;;;;;8.02;4.47;;;;;;;12.28;72.90;100420.13;10407471;28;20052;-53
2023/01/01 08:05:23;;;;;;;6.05;4.18;;;;;;;12.33;72.59;100425.91;10398774;28;20049;-49
2023/01/01 08:10:27;;;;;;;;;;;;;;;12.32;72.75;100408.19;10396993;28;20571;-49
2023/01/01 08:15:29;;;;;;;6.68;4.80;;;;;;;12.37;72.71;100400.66;10385816;28;19978;-49
2023/01/01 08:20:32;;;;;;;6.35;4.75;;;;;;;12.38;72.54;100413.03;10381654;28;20065;-50
2023/01/01 08:25:34;;;;;;;6.30;4.18;;;;;;;12.49;72.06;100421.91;10381253;28;20049;-48
2023/01/01 08:30:35;;;;;;;5.25;4.35;;;;;;;12.57;71.80;100422.13;10380527;28;20803;-50
2023/01/01 08:35:40;;;;;;;7.80;4.13;;;;;;;12.62;71.52;100419.03;10390331;28;20128;-48
2023/01/01 08:40:42;;;;;;;6.68;3.80;;;;;;;12.67;71.12;100422.16;10415820;28;20052;-49
2023/01/01 08:45:44;;;;;;;4.88;3.60;;;;;;;12.73;70.86;100437.66;10391255;28;20750;-49
2023/01/01 08:50:53;;;;;;;5.60;4.00;;;;;;;12.86;70.45;100437.44;10395560;28;20177;-49
2023/01/01 08:56:03;;;;;;;6.90;4.55;;;;;;;13.00;69.65;100446.91;10414066;28;20053;-48
2023/01/01 09:01:05;;;;;;;6.35;3.55;;;;;;;13.10;69.66;100442.44;10391005;28;20726;-49
2023/01/01 09:06:07;;;;;;;6.22;3.40;;;;;;;13.16;69.18;100435.72;10407134;28;20066;-49
2023/01/01 09:11:21;;;;;;;4.78;2.90;;;;;;;13.20;68.92;100447.84;10419642;28;20060;-49
2023/01/01 09:16:23;;;;;;;5.63;3.57;;;;;;;13.05;69.05;100437.50;10384252;28;20048;-49
2023/01/01 09:21:24;;;;;;;6.78;3.53;;;;;;;13.15;68.69;100460.75;10389458;28;20061;-49
2023/01/01 09:26:25;;;;;;;4.88;3.20;;;;;;;13.23;68.78;100476.97;10390565;28;20048;-49
2023/01/01 09:31:27;;;;;;;4.63;2.80;;;;;;;13.26;68.47;100476.69;10389310;28;20135;-49
2023/01/01 09:36:30;;;;;;;3.97;3.22;;;;;;;13.39;68.04;100482.69;10379260;28;20060;-50
2023/01/01 09:41:53;;;;;;;6.67;3.27;;;;;;;13.51;67.61;100485.22;10383330;28;20053;-50
2023/01/01 09:47:01;;;;;;;7.18;3.38;;;;;;;13.44;67.48;100464.38;10387419;28;20163;-49
2023/01/01 09:52:04;;;;;;;6.45;3.42;;;;;;;13.56;67.31;100486.53;10389298;28;20604;-53
2023/01/01 09:57:10;;;;;;;5.78;3.10;;;;;;;13.65;66.99;100481.34;10395126;28;20059;-50
2023/01/01 10:02:57;;;;;;;6.20;3.20;;;;;;;13.90;66.16;100486.16;10394073;28;20041;-50
2023/01/01 10:08:30;;;;;;;4.63;2.70;;;;;;;14.15;65.48;100457.97;10394928;28;20048;-50
2023/01/01 10:13:44;;;;;;;7.85;2.78;;;;;;;14.19;64.83;100469.25;10396837;28;20534;-50
2023/01/01 10:18:49;;;;;;;3.30;2.30;;;;;;;14.10;65.10;100457.56;10390578;28;20044;-49
2023/01/01 10:24:14;;;;;;;5.18;2.30;;;;;;;14.27;64.68;100466.69;10395565;28;20461;-49
2023/01/01 10:29:23;;;;;;;3.70;2.15;;;;;;;14.55;64.07;100463.31;10390118;28;20408;-50
2023/01/01 10:34:28;;;;;;;5.05;2.65;;;;;;;14.45;64.05;100466.81;10394283;28;20140;-49
2023/01/01 10:39:29;;;;;;;5.10;1.95;;;;;;;14.49;64.05;100470.91;10391585;28;20056;-50
2023/01/01 10:44:34;;;;;;;5.97;2.13;;;;;;;14.41;64.32;100469.94;10396450;28;20080;-50
2023/01/01 10:49:57;;;;;;;5.82;2.22;;;;;;;14.39;64.57;100471.91;10390046;28;20162;-49
2023/01/01 10:54:59;;;;;;;4.18;1.95;;;;;;;14.29;64.42;100453.16;10402187;28;20049;-49
2023/01/01 11:00:22;;;;;;;5.63;2.47;;;;;;;14.29;64.39;100453.16;10395110;28;20068;-49
2023/01/01 11:05:24;;;;;;;6.00;2.43;;;;;;;14.38;64.22;100455.00;10387220;28;20514;-55
2023/01/01 11:10:27;;;;;;;5.90;2.10;;;;;;;14.53;63.80;100459.91;10388597;28;20558;-49
2023/01/01 11:15:37;;;;;;;5.05;2.08;;;;;;;14.77;62.98;100451.41;10386147;28;20105;-54
2023/01/01 11:20:39;;;;;;;5.20;1.85;;;;;;;15.08;61.88;100440.44;10389222;28;20076;-49
2023/01/01 11:26:15;;;;;;;3.95;1.70;;;;;;;15.25;61.11;100417.34;10392563;28;20395;-50
2023/01/01 11:31:18;;;;;;;5.18;2.00;;;;;;;15.43;60.33;100409.34;10385456;28;20040;-50
2023/01/01 11:36:27;;;;;;;5.93;2.92;;;;;;;15.41;60.59;100404.13;10397450;28;20053;-50
2023/01/01 11:41:40;;;;;;;4.00;2.28;;;;;;;15.97;59.20;100412.06;10393699;28;20643;-49
2023/01/01 11:46:45;;;;;;;5.30;2.13;;;;;;;16.99;55.30;100401.66;10393416;28;20041;-49
2023/01/01 11:51:46;;;;;;;6.07;2.22;;;;;;;16.66;55.55;100402.28;10390725;28;20056;-49
2023/01/01 11:56:57;;;;;;;6.20;1.88;;;;;;;16.07;57.74;100402.06;10396582;28;20067;-49
2023/01/01 12:02:03;;;;;;;3.63;1.70;;;;;;;15.63;59.04;100404.69;10399803;28;20045;-50
2023/01/01 12:07:13;;;;;;;5.38;2.20;;;;;;;15.38;59.85;100407.09;10404999;28;20076;-51
2023/01/01 12:12:38;;;;;;;7.07;2.17;;;;;;;15.31;59.90;100416.75;10409382;28;20057;-50
2023/01/01 12:17:45;;;;;;;4.47;1.90;;;;;;;15.19;60.36;100435.72;10402885;28;20061;-53
2023/01/01 12:22:47;;;;;;;7.68;2.25;;;;;;;15.17;60.63;100413.56;10394138;28;20076;-50
2023/01/01 12:28:30;;;;;;;5.80;2.25;;;;;;;15.33;60.23;100414.78;10401746;28;20060;-50
2023/01/01 12:33:44;;;;;;;4.75;2.28;;;;;;;15.62;59.82;100435.19;10386053;28;20052;-54
2023/01/01 12:39:36;;;;;;;5.63;2.63;;;;;;;15.52;59.00;100424.50;10403639;28;20507;-49
2023/01/01 12:45:15;;;;;;;4.82;2.58;;;;;;;15.51;59.41;100429.03;10389701;28;20142;-50
2023/01/01 12:50:36;;;;;;;5.85;2.33;;;;;;;15.34;59.97;100385.13;10403229;28;20138;-50
2023/01/01 12:55:55;;;;;;;4.47;2.42;;;;;;;15.45;59.39;100407.34;10399811;28;20179;-49
2023/01/01 13:01:02;;;;;;;6.53;2.85;;;;;;;15.48;59.09;100389.09;10397076;28;20065;-50
2023/01/01 13:06:06;;;;;;;6.50;2.17;;;;;;;15.65;58.40;100389.28;10396431;28;20512;-50
2023/01/01 13:11:08;;;;;;;5.27;2.17;;;;;;;15.82;57.51;100404.56;10396569;28;20482;-51
2023/01/01 13:16:12;;;;;;;10.10;2.47;;;;;;;16.02;56.86;100393.66;10398273;28;20752;-50
2023/01/01 13:21:16;;;;;;;5.25;2.35;;;;;;;15.99;57.00;100396.63;10393859;28;20200;-49
2023/01/01 13:26:21;;;;;;;;;;;;;;;15.66;57.47;100402.53;10400156;28;20075;-52
2023/01/01 13:31:38;;;;;;;;;;;;;;;15.36;58.30;100398.38;10417863;28;19928;-50
2023/01/01 13:36:41;;;;;;;7.30;2.55;;;;;;;15.30;59.01;100410.53;10394340;28;19939;-55
2023/01/01 13:41:44;;;;;;;7.90;2.15;;;;;;;15.26;59.42;100411.81;10397529;28;20249;-49
2023/01/01 13:47:14;;;;;;;6.05;2.50;;;;;;;15.16;59.06;100406.53;10395962;28;20076;-49
2023/01/01 13:52:43;;;;;;;6.43;2.42;;;;;;;15.10;59.87;100404.47;10390925;28;21141;-50
2023/01/01 13:58:07;;;;;;;4.75;2.30;;;;;;;15.10;60.07;100404.47;10417992;28;20040;-49
2023/01/01 14:03:15;;;;;;;6.18;2.50;;;;;;;15.00;59.87;100400.97;10399036;28;20517;-50
2023/01/01 14:08:34;;;;;;;8.23;2.70;;;;;;;14.94;60.00;100396.22;10398788;28;20059;-49
2023/01/01 14:13:40;;;;;;;10.23;2.72;;;;;;;15.02;59.38;100402.50;10395210;28;20140;-49
2023/01/01 14:18:55;;;;;;;4.80;2.20;;;;;;;15.01;59.69;100391.91;10395521;28;20429;-49
2023/01/01 14:24:00;;;;;;;5.90;2.28;;;;;;;15.03;59.49;100414.91;10389014;28;20154;-49
2023/01/01 14:29:06;;;;;;;6.68;2.90;;;;;;;15.00;59.33;100411.69;10396798;28;20057;-50
2023/01/01 14:34:14;;;;;;;7.65;2.70;;;;;;;15.03;59.34;100414.09;10387630;28;20727;-49
2023/01/01 14:39:42;;;;;;;7.18;2.25;;;;;;;15.02;59.51;100426.63;10390130;28;21001;-49
2023/01/01 14:44:48;;;;;;;6.60;2.10;;;;;;;14.95;60.12;100414.81;10394508;28;20048;-50
2023/01/01 14:49:51;;;;;;;7.35;2.75;;;;;;;14.87;60.58;100400.47;10395969;28;20202;-49
2023/01/01 14:54:55;;;;;;;6.97;2.80;;;;;;;14.95;61.02;100419.31;10400099;28;20062;-51
2023/01/01 14:59:56;;;;;;;7.63;3.15;;;;;;;14.91;61.89;100417.97;10396198;28;20059;-49
2023/01/01 15:05:25;;;;;;;6.93;3.15;;;;;;;14.85;62.69;100419.38;10387602;28;20053;-52
2023/01/01 15:10:33;;;;;;;6.70;2.75;;;;;;;14.81;62.58;100415.31;10391041;28;20130;-49
2023/01/01 15:15:43;;;;;;;8.63;3.22;;;;;;;14.73;62.55;100412.53;10388724;28;20045;-49
2023/01/01 15:20:52;;;;;;;7.45;3.67;;;;;;;14.63;62.94;100412.53;10385791;28;20112;-53
2023/01/01 15:25:54;;;;;;;5.57;2.90;;;;;;;14.54;62.89;100402.69;10390348;28;20243;-49
2023/01/01 15:30:56;;;;;;;5.93;3.10;;;;;;;14.55;63.02;100389.13;10388024;28;21629;-50
2023/01/01 15:36:01;;;;;;;7.10;4.13;;;;;;;14.57;62.60;100411.25;10387952;28;20413;-49
2023/01/01 15:41:42;;;;;;;6.55;3.33;;;;;;;14.53;62.21;100422.41;10387098;28;20092;-51
2023/01/01 15:46:46;;;;;;;7.82;2.97;;;;;;;14.52;62.01;100401.97;10388505;28;20736;-50
2023/01/01 15:51:48;;;;;;;7.05;3.60;;;;;;;14.53;62.08;100392.94;10388340;28;20045;-49
2023/01/01 15:56:50;;;;;;;12.50;3.40;;;;;;;14.57;62.12;100399.72;10387960;28;20060;-49
2023/01/01 16:02:03;;;;;;;6.60;3.35;;;;;;;14.58;61.99;100404.09;10394997;28;21543;-50
2023/01/01 16:07:13;;;;;;;7.57;3.83;;;;;;;14.62;61.80;100402.81;10387551;28;20053;-51
2023/01/01 16:12:15;;;;;;;15.25;12.00;;;;;;;14.64;61.68;100408.88;10391325;28;20840;-50
2023/01/01 16:17:18;;;;;;;10.60;8.68;;;;;;;14.65;61.57;100406.06;10388980;28;20048;-50
2023/01/01 16:22:20;;;;;;;7.97;4.45;;;;;;;14.68;61.76;100404.91;10384294;28;20895;-49
2023/01/01 16:27:22;;;;;;;9.70;4.72;;;;;;;14.70;61.67;100386.88;10384536;28;20050;-49
2023/01/01 16:32:23;;;;;;;9.10;8.30;;;;;;;14.68;62.04;100380.78;10387778;28;20726;-50
2023/01/01 16:37:24;;;;;;;7.13;4.60;;;;;;;14.73;61.92;100389.25;10394522;28;20504;-49
2023/01/01 16:42:26;;;;;;;7.65;4.78;;;;;;;14.68;62.11;100378.09;10388479;28;20060;-49
2023/01/01 16:47:27;;;;;;;7.93;4.68;;;;;;;14.66;62.16;100370.22;10388588;28;20048;-51
2023/01/01 16:52:29;;;;;;;8.23;3.53;;;;;;;14.58;61.98;100382.66;10393275;28;20049;-49
2023/01/01 16:57:35;;;;;;;7.90;3.55;;;;;;;14.60;62.50;100386.84;10400567;28;20085;-50
2023/01/01 17:02:36;;;;;;;7.65;4.20;;;;;;;14.59;62.41;100381.63;10396060;28;20160;-50
2023/01/01 17:07:38;;;;;;;8.40;5.95;;;;;;;14.55;62.59;100367.72;10385277;28;20505;-48
2023/01/01 17:12:40;;;;;;;6.25;4.32;;;;;;;14.56;62.69;100374.75;10390311;28;20045;-50
2023/01/01 17:17:41;;;;;;;9.45;4.88;;;;;;;14.57;63.13;100362.19;10403850;28;20052;-48
2023/01/01 17:22:42;;;;;;;9.23;4.97;;;;;;;14.57;62.68;100354.16;10391270;28;20053;-49
2023/01/01 17:27:44;;;;;;;7.80;5.63;;;;;;;14.53;62.89;100353.59;10390269;28;20060;-49
2023/01/01 17:32:45;;;;;;;8.68;4.95;;;;;;;14.50;63.27;100338.69;10391842;28;20051;-49
2023/01/01 17:37:47;;;;;;;8.95;4.45;;;;;;;14.52;63.30;100321.59;10389208;28;20045;-49
2023/01/01 17:42:48;;;;;;;10.20;6.18;;;;;;;14.50;63.72;100338.69;10415427;28;20067;-50
2023/01/01 17:47:50;;;;;;;10.27;5.20;;;;;;;14.55;63.84;100337.41;10390409;28;20071;-49
2023/01/01 17:52:51;;;;;;;8.68;4.78;;;;;;;14.53;64.25;100329.50;10389225;28;20048;-49
2023/01/01 17:57:53;;;;;;;7.85;4.68;;;;;;;14.51;64.52;100328.81;10389170;28;20071;-49
2023/01/01 18:02:56;;;;;;;7.93;5.53;;;;;;;14.49;64.61;100325.44;10387121;28;20177;-50
2023/01/01 18:07:58;;;;;;;7.68;4.97;;;;;;;14.44;64.39;100325.88;10388621;28;20049;-49
2023/01/01 18:13:00;;;;;;;7.38;4.78;;;;;;;14.43;63.74;100305.44;10384056;28;20774;-50
2023/01/01 18:18:01;;;;;;;7.90;4.40;;;;;;;14.40;63.30;100295.03;10384717;28;20059;-49
2023/01/01 18:23:03;;;;;;;11.40;6.30;;;;;;;14.40;63.56;100289.69;10386064;28;20135;-50
2023/01/01 18:28:06;;;;;;;12.77;7.03;;;;;;;14.42;63.02;100281.50;10382617;28;20146;-50
2023/01/01 18:33:08;;;;;;;8.30;5.50;;;;;;;14.43;62.71;100291.22;10388048;28;20389;-49
2023/01/01 18:38:12;;;;;;;8.32;4.63;;;;;;;14.45;62.12;100287.38;10384057;28;20053;-49
2023/01/01 18:43:22;;;;;;;6.63;3.83;;;;;;;14.48;62.46;100284.41;10388064;28;20057;-53
2023/01/01 18:48:23;;;;;;;9.77;4.88;;;;;;;14.52;62.65;100276.06;10389105;28;20085;-49
2023/01/01 18:53:26;;;;;;;8.98;4.65;;;;;;;14.45;63.00;100282.03;10388502;28;20370;-53
2023/01/01 18:58:31;;;;;;;8.07;4.55;;;;;;;14.43;62.67;100267.94;10388365;28;20718;-49
2023/01/01 19:03:33;;;;;;;10.23;5.63;;;;;;;14.44;61.99;100248.22;10393072;28;20049;-49
2023/01/01 19:08:41;;;;;;;8.98;6.18;;;;;;;14.45;62.34;100249.88;10393139;28;20042;-48
2023/01/01 19:13:43;;;;;;;9.82;5.47;;;;;;;14.33;62.30;100218.94;10385127;28;20128;-49
2023/01/01 19:18:45;;;;;;;7.70;4.82;;;;;;;14.41;62.39;100240.50;10407880;28;20058;-50
2023/01/01 19:23:54;;;;;;;8.38;4.63;;;;;;;14.38;63.07;100237.25;10394631;28;20091;-49
2023/01/01 19:29:00;;;;;;;8.23;5.18;;;;;;;14.36;63.33;100228.53;10380127;28;20485;-50
2023/01/01 19:34:02;;;;;;;6.32;3.90;;;;;;;14.41;62.72;100231.59;10378679;28;20281;-49
2023/01/01 19:39:04;;;;;;;6.30;4.22;;;;;;;14.37;62.18;100215.00;10388135;22;20211;-69
2023/01/01 19:44:06;;;;;;;11.02;5.25;;;;;;;14.44;61.87;100212.53;10302726;22;20786;-61
2023/01/01 19:49:10;;;;;;;7.15;5.20;;;;;;;14.45;62.06;100214.25;10327572;28;20065;-62
2023/01/01 19:54:14;;;;;;;11.45;6.57;;;;;;;14.52;61.95;100211.78;10314315;28;21073;-61
2023/01/01 19:59:17;;;;;;;11.03;5.60;;;;;;;14.50;63.03;100206.59;10324252;28;20151;-62
2023/01/01 20:04:19;;;;;;;12.75;7.22;;;;;;;14.45;63.35;100207.03;10300911;28;20045;-61
2023/01/01 20:09:23;;;;;;;10.68;4.78;;;;;;;14.47;62.23;100210.44;10322250;28;20138;-61
2023/01/01 20:14:25;;;;;;;9.38;5.60;;;;;;;14.52;61.78;100211.78;10281692;28;20051;-62
2023/01/01 20:19:26;;;;;;;6.78;4.38;;;;;;;14.49;60.87;100205.75;10281261;28;20239;-61
2023/01/01 20:24:27;;;;;;;6.22;4.22;;;;;;;14.52;61.26;100207.28;10303209;28;20064;-61
2023/01/01 20:29:30;;;;;;;6.80;5.20;;;;;;;14.48;60.44;100201.38;10345226;28;20072;-62
2023/01/01 20:34:33;;;;;;;7.32;4.88;;;;;;;14.52;60.84;100206.44;10328036;28;20046;-62
2023/01/01 20:39:38;;;;;;;11.30;5.50;;;;;;;14.47;60.56;100210.44;10338420;28;20062;-60
2023/01/01 20:44:42;;;;;;;8.45;5.25;;;;;;;14.47;60.95;100209.56;10316893;28;20060;-61
2023/01/01 20:49:44;;;;;;;8.43;5.43;;;;;;;14.41;61.70;100205.69;10328991;28;20091;-68
2023/01/01 20:54:47;;;;;;;12.02;7.93;;;;;;;14.39;61.37;100209.50;10355474;28;20096;-61
2023/01/01 20:59:48;;;;;;;15.15;8.63;;;;;;;14.40;61.81;100213.84;10344067;28;20578;-61
2023/01/01 21:04:52;;;;;;;8.85;7.47;;;;;;;14.39;61.76;100212.16;10293696;28;20558;-54
2023/01/01 21:09:53;;;;;;;12.85;8.07;;;;;;;14.47;63.09;100215.78;10306711;28;20749;-54
2023/01/01 21:14:57;;;;;;;12.55;7.45;;;;;;;14.50;61.88;100217.31;10304968;28;20054;-61
2023/01/01 21:19:58;;;;;;;11.18;6.20;;;;;;;14.45;61.39;100217.75;10303151;28;20770;-62
2023/01/01 21:25:14;;;;;;;10.13;6.70;;;;;;;14.43;62.60;100213.56;10337022;28;20061;-62
2023/01/01 21:30:46;;;;;;;13.02;7.38;;;;;;;14.44;62.10;100215.22;10285005;28;20054;-61
2023/01/01 21:35:48;;;;;;;10.35;6.28;;;;;;;14.37;61.95;100212.31;10320407;28;20053;-62
2023/01/01 21:40:51;;;;;;;11.07;6.70;;;;;;;14.33;61.76;100211.75;10323022;28;20091;-62
2023/01/01 21:45:55;;;;;;;13.10;5.93;;;;;;;14.35;61.41;100224.16;10341889;28;20189;-61
2023/01/01 21:50:58;;;;;;;8.60;5.80;;;;;;;14.27;61.54;100230.25;10330595;28;20056;-61
2023/01/01 21:56:21;;;;;;;12.48;7.38;;;;;;;14.23;62.32;100224.38;10326988;28;20046;-61
2023/01/01 22:01:34;;;;;;;10.13;6.68;;;;;;;14.18;62.27;100215.09;10337755;28;20604;-68
2023/01/01 22:06:37;;;;;;;;;;;;;;;14.10;63.06;100224.69;10330101;28;20060;-62
2023/01/01 22:11:42;;;;;;;12.77;7.55;;;;;;;14.08;62.69;100218.66;10329034;28;19932;-61
2023/01/01 22:16:49;;;;;;;11.70;7.47;;;;;;;14.08;63.02;100221.34;10315490;28;20529;-61
2023/01/01 22:21:52;;;;;;;12.43;6.18;;;;;;;14.08;63.02;100231.16;10269150;28;20054;-61
2023/01/01 22:26:55;;;;;;;9.45;6.47;;;;;;;14.06;62.88;100228.66;10297874;28;20049;-61
2023/01/01 22:32:11;;;;;;;9.15;5.97;;;;;;;14.10;63.16;100226.53;10295047;28;20604;-62
2023/01/01 22:37:18;;;;;;;10.35;6.30;;;;;;;14.10;63.37;100213.97;10345478;28;20045;-65
2023/01/01 22:42:21;;;;;;;10.80;7.10;;;;;;;14.11;63.53;100214.81;10348195;28;20041;-61
2023/01/01 22:47:33;;;;;;;7.20;5.45;;;;;;;14.11;63.59;100215.69;10333063;28;20072;-62
2023/01/01 22:52:34;;;;;;;12.63;5.88;;;;;;;14.06;63.07;100212.59;10313719;28;20115;-62
2023/01/01 22:57:36;;;;;;;10.10;5.85;;;;;;;14.11;63.05;100213.00;10330883;28;20058;-61
2023/01/01 23:02:38;;;;;;;9.05;5.72;;;;;;;14.15;63.00;100214.38;10319211;28;20045;-62
2023/01/01 23:07:41;;;;;;;9.27;6.75;;;;;;;14.13;62.90;100208.34;10335578;28;20602;-61
2023/01/01 23:12:43;;;;;;;9.85;5.60;;;;;;;14.14;63.19;100212.72;10307389;28;20077;-62
2023/01/01 23:17:44;;;;;;;7.47;4.93;;;;;;;14.11;63.01;100221.03;10321300;28;20144;-62
2023/01/01 23:22:51;;;;;;;9.18;6.03;;;;;;;13.99;63.00;100203.47;10323430;28;20056;-62